sensor_id;sensor_type;location;lat;lon;timestamp;temperature;humidity
22071;DHT22;11200;51.488;6.668;2023-05-25T00:01:17;11.80;99.90
22071;DHT22;11200;51.488;6.668;2023-05-25T00:03:43;11.80;99.90
22071;DHT22;11200;51.488;6.668;2023-05-25T00:06:10;11.80;99.90
22071;DHT22;11200;51.488;6.668;2023-05-25T00:08:38;11.70;99.90
22071;DHT22;11200;51.488;6.668;2023-05-25T00:11:04;11.80;99.90
22071;DHT22;11200;51.488;6.668;2023-05-25T00:13:30;11.70;99.90
22071;DHT22;11200;51.488;6.668;2023-05-25T00:15:56;11.60;99.90
22071;DHT22;11200;51.488;6.668;2023-05-25T00:18:22;11.60;99.90
22071;DHT22;11200;51.488;6.668;2023-05-25T00:20:49;11.60;99.90
22071;DHT22;11200;51.488;6.668;2023-05-25T00:23:18;11.60;99.90
22071;DHT22;11200;51.488;6.668;2023-05-25T00:25:44;11.50;99.90
22071;DHT22;11200;51.488;6.668;2023-05-25T00:28:10;11.50;99.90
22071;DHT22;11200;51.488;6.668;2023-05-25T00:30:36;11.50;99.90
22071;DHT22;11200;51.488;6.668;2023-05-25T00:33:02;11.50;99.90
22071;DHT22;11200;51.488;6.668;2023-05-25T00:35:27;11.40;99.90
22071;DHT22;11200;51.488;6.668;2023-05-25T00:37:53;11.40;99.90
22071;DHT22;11200;51.488;6.668;2023-05-25T00:40:19;11.50;99.90
22071;DHT22;11200;51.488;6.668;2023-05-25T00:42:46;11.30;99.90
22071;DHT22;11200;51.488;6.668;2023-05-25T00:45:11;11.30;99.90
22071;DHT22;11200;51.488;6.668;2023-05-25T00:47:38;11.20;99.90
22071;DHT22;11200;51.488;6.668;2023-05-25T00:50:08;11.20;99.90
22071;DHT22;11200;51.488;6.668;2023-05-25T00:52:34;11.10;99.90
22071;DHT22;11200;51.488;6.668;2023-05-25T00:55:01;11.10;99.90
22071;DHT22;11200;51.488;6.668;2023-05-25T00:57:29;11.10;99.90
22071;DHT22;11200;51.488;6.668;2023-05-25T00:59:59;11.10;99.90
22071;DHT22;11200;51.488;6.668;2023-05-25T01:02:25;11.00;99.90
22071;DHT22;11200;51.488;6.668;2023-05-25T01:04:53;11.00;99.90
22071;DHT22;11200;51.488;6.668;2023-05-25T01:07:23;10.90;99.90
22071;DHT22;11200;51.488;6.668;2023-05-25T01:09:57;10.90;99.90
22071;DHT22;11200;51.488;6.668;2023-05-25T01:12:24;10.90;99.90
22071;DHT22;11200;51.488;6.668;2023-05-25T01:14:52;10.90;99.90
22071;DHT22;11200;51.488;6.668;2023-05-25T01:17:18;10.80;99.90
22071;DHT22;11200;51.488;6.668;2023-05-25T01:19:45;10.80;99.90
22071;DHT22;11200;51.488;6.668;2023-05-25T01:25:06;10.70;99.90
22071;DHT22;11200;51.488;6.668;2023-05-25T01:27:43;10.70;99.90
22071;DHT22;11200;51.488;6.668;2023-05-25T01:30:13;10.70;99.90
22071;DHT22;11200;51.488;6.668;2023-05-25T01:32:41;10.60;99.90
22071;DHT22;11200;51.488;6.668;2023-05-25T01:35:08;10.60;99.90
22071;DHT22;11200;51.488;6.668;2023-05-25T01:37:37;10.60;99.90
22071;DHT22;11200;51.488;6.668;2023-05-25T01:40:05;10.50;99.90
22071;DHT22;11200;51.488;6.668;2023-05-25T01:42:30;10.50;99.90
22071;DHT22;11200;51.488;6.668;2023-05-25T01:44:57;10.50;99.90
22071;DHT22;11200;51.488;6.668;2023-05-25T01:50:00;10.50;99.90
22071;DHT22;11200;51.488;6.668;2023-05-25T01:52:44;10.50;99.90
22071;DHT22;11200;51.488;6.668;2023-05-25T01:55:15;10.40;99.90
22071;DHT22;11200;51.488;6.668;2023-05-25T01:57:45;10.40;99.90
22071;DHT22;11200;51.488;6.668;2023-05-25T02:00:14;10.50;99.90
22071;DHT22;11200;51.488;6.668;2023-05-25T02:02:42;10.40;99.90
22071;DHT22;11200;51.488;6.668;2023-05-25T02:05:09;10.40;99.90
22071;DHT22;11200;51.488;6.668;2023-05-25T02:07:35;10.40;99.90
22071;DHT22;11200;51.488;6.668;2023-05-25T02:10:01;10.30;99.90
22071;DHT22;11200;51.488;6.668;2023-05-25T02:12:27;10.30;99.90
22071;DHT22;11200;51.488;6.668;2023-05-25T02:14:53;10.30;99.90
22071;DHT22;11200;51.488;6.668;2023-05-25T02:17:19;10.30;99.90
22071;DHT22;11200;51.488;6.668;2023-05-25T02:19:45;10.30;99.90
22071;DHT22;11200;51.488;6.668;2023-05-25T02:22:13;10.20;99.90
22071;DHT22;11200;51.488;6.668;2023-05-25T02:24:38;10.20;99.90
22071;DHT22;11200;51.488;6.668;2023-05-25T02:27:05;10.20;99.90
22071;DHT22;11200;51.488;6.668;2023-05-25T02:29:30;10.20;99.90
22071;DHT22;11200;51.488;6.668;2023-05-25T02:31:57;10.20;99.90
22071;DHT22;11200;51.488;6.668;2023-05-25T02:34:22;10.10;99.90
22071;DHT22;11200;51.488;6.668;2023-05-25T02:36:49;10.10;99.90
22071;DHT22;11200;51.488;6.668;2023-05-25T02:39:15;10.10;99.90
22071;DHT22;11200;51.488;6.668;2023-05-25T02:41:41;10.10;99.90
22071;DHT22;11200;51.488;6.668;2023-05-25T02:44:07;10.10;99.90
22071;DHT22;11200;51.488;6.668;2023-05-25T02:46:32;10.10;99.90
22071;DHT22;11200;51.488;6.668;2023-05-25T02:48:58;10.00;99.90
22071;DHT22;11200;51.488;6.668;2023-05-25T02:51:24;10.00;99.90
22071;DHT22;11200;51.488;6.668;2023-05-25T02:53:50;10.00;99.90
22071;DHT22;11200;51.488;6.668;2023-05-25T02:56:16;10.00;99.90
22071;DHT22;11200;51.488;6.668;2023-05-25T02:58:42;9.90;99.90
22071;DHT22;11200;51.488;6.668;2023-05-25T03:01:08;9.90;99.90
22071;DHT22;11200;51.488;6.668;2023-05-25T03:03:35;9.90;99.90
22071;DHT22;11200;51.488;6.668;2023-05-25T03:06:01;9.90;99.90
22071;DHT22;11200;51.488;6.668;2023-05-25T03:08:28;9.90;99.90
22071;DHT22;11200;51.488;6.668;2023-05-25T03:10:55;9.80;99.90
22071;DHT22;11200;51.488;6.668;2023-05-25T03:13:22;9.80;99.90
22071;DHT22;11200;51.488;6.668;2023-05-25T03:15:47;9.80;99.90
22071;DHT22;11200;51.488;6.668;2023-05-25T03:18:13;9.80;99.90
22071;DHT22;11200;51.488;6.668;2023-05-25T03:20:38;9.70;99.90
22071;DHT22;11200;51.488;6.668;2023-05-25T03:23:06;9.80;99.90
22071;DHT22;11200;51.488;6.668;2023-05-25T03:25:32;9.70;99.90
22071;DHT22;11200;51.488;6.668;2023-05-25T03:27:57;9.60;99.90
22071;DHT22;11200;51.488;6.668;2023-05-25T03:30:23;9.60;99.90
22071;DHT22;11200;51.488;6.668;2023-05-25T03:32:49;9.60;99.90
22071;DHT22;11200;51.488;6.668;2023-05-25T03:35:15;9.90;99.90
22071;DHT22;11200;51.488;6.668;2023-05-25T03:37:42;9.60;99.90
22071;DHT22;11200;51.488;6.668;2023-05-25T03:40:08;9.60;99.90
22071;DHT22;11200;51.488;6.668;2023-05-25T03:42:36;9.50;99.90
22071;DHT22;11200;51.488;6.668;2023-05-25T03:45:02;9.50;99.90
22071;DHT22;11200;51.488;6.668;2023-05-25T03:47:28;9.50;99.90
22071;DHT22;11200;51.488;6.668;2023-05-25T03:49:53;9.50;99.90
22071;DHT22;11200;51.488;6.668;2023-05-25T03:52:19;9.50;99.90
22071;DHT22;11200;51.488;6.668;2023-05-25T03:54:45;9.60;99.90
22071;DHT22;11200;51.488;6.668;2023-05-25T03:57:10;9.60;99.90
22071;DHT22;11200;51.488;6.668;2023-05-25T03:59:36;9.40;99.90
22071;DHT22;11200;51.488;6.668;2023-05-25T04:02:01;9.50;99.90
22071;DHT22;11200;51.488;6.668;2023-05-25T04:04:27;9.50;99.90
22071;DHT22;11200;51.488;6.668;2023-05-25T04:06:55;9.40;99.90
22071;DHT22;11200;51.488;6.668;2023-05-25T04:09:21;9.40;99.90
22071;DHT22;11200;51.488;6.668;2023-05-25T04:11:48;9.30;99.90
22071;DHT22;11200;51.488;6.668;2023-05-25T04:14:14;9.40;99.90
22071;DHT22;11200;51.488;6.668;2023-05-25T04:16:40;9.30;99.90
22071;DHT22;11200;51.488;6.668;2023-05-25T04:19:07;9.40;99.90
22071;DHT22;11200;51.488;6.668;2023-05-25T04:21:33;9.30;99.90
22071;DHT22;11200;51.488;6.668;2023-05-25T04:23:59;9.50;99.90
22071;DHT22;11200;51.488;6.668;2023-05-25T04:26:25;9.40;99.90
22071;DHT22;11200;51.488;6.668;2023-05-25T04:28:51;9.30;99.90
22071;DHT22;11200;51.488;6.668;2023-05-25T04:31:20;9.30;99.90
22071;DHT22;11200;51.488;6.668;2023-05-25T04:33:46;9.30;99.90
22071;DHT22;11200;51.488;6.668;2023-05-25T04:36:12;9.30;99.90
22071;DHT22;11200;51.488;6.668;2023-05-25T04:38:39;9.30;99.90
22071;DHT22;11200;51.488;6.668;2023-05-25T04:41:06;9.30;99.90
22071;DHT22;11200;51.488;6.668;2023-05-25T04:43:32;9.20;99.90
22071;DHT22;11200;51.488;6.668;2023-05-25T04:46:01;9.30;99.90
22071;DHT22;11200;51.488;6.668;2023-05-25T04:48:28;9.30;99.90
22071;DHT22;11200;51.488;6.668;2023-05-25T04:50:58;9.30;99.90
22071;DHT22;11200;51.488;6.668;2023-05-25T04:53:27;9.40;99.90
22071;DHT22;11200;51.488;6.668;2023-05-25T04:55:53;9.40;99.90
22071;DHT22;11200;51.488;6.668;2023-05-25T04:58:20;9.30;99.90
22071;DHT22;11200;51.488;6.668;2023-05-25T05:00:46;9.30;99.90
22071;DHT22;11200;51.488;6.668;2023-05-25T05:03:12;9.30;99.90
22071;DHT22;11200;51.488;6.668;2023-05-25T05:05:38;9.30;99.90
22071;DHT22;11200;51.488;6.668;2023-05-25T05:08:04;9.30;99.90
22071;DHT22;11200;51.488;6.668;2023-05-25T05:10:30;9.30;99.90
22071;DHT22;11200;51.488;6.668;2023-05-25T05:12:55;9.40;99.90
22071;DHT22;11200;51.488;6.668;2023-05-25T05:15:21;9.40;99.90
22071;DHT22;11200;51.488;6.668;2023-05-25T05:17:47;9.40;99.90
22071;DHT22;11200;51.488;6.668;2023-05-25T05:20:12;9.40;99.90
22071;DHT22;11200;51.488;6.668;2023-05-25T05:22:38;9.40;99.90
22071;DHT22;11200;51.488;6.668;2023-05-25T05:25:04;9.50;99.90
22071;DHT22;11200;51.488;6.668;2023-05-25T05:27:30;9.50;99.90
22071;DHT22;11200;51.488;6.668;2023-05-25T05:29:55;9.50;99.90
22071;DHT22;11200;51.488;6.668;2023-05-25T05:32:21;9.50;99.90
22071;DHT22;11200;51.488;6.668;2023-05-25T05:34:47;9.50;99.90
22071;DHT22;11200;51.488;6.668;2023-05-25T05:37:12;9.60;99.90
22071;DHT22;11200;51.488;6.668;2023-05-25T05:39:38;9.70;99.90
22071;DHT22;11200;51.488;6.668;2023-05-25T05:42:05;9.60;99.90
22071;DHT22;11200;51.488;6.668;2023-05-25T05:44:32;9.60;99.90
22071;DHT22;11200;51.488;6.668;2023-05-25T05:46:58;9.60;99.90
22071;DHT22;11200;51.488;6.668;2023-05-25T05:49:29;9.70;99.90
22071;DHT22;11200;51.488;6.668;2023-05-25T05:51:55;9.70;99.90
22071;DHT22;11200;51.488;6.668;2023-05-25T05:54:20;9.70;99.90
22071;DHT22;11200;51.488;6.668;2023-05-25T05:56:46;9.80;99.90
22071;DHT22;11200;51.488;6.668;2023-05-25T05:59:12;9.80;99.90
22071;DHT22;11200;51.488;6.668;2023-05-25T06:01:46;9.80;99.90
22071;DHT22;11200;51.488;6.668;2023-05-25T06:04:12;9.90;99.90
22071;DHT22;11200;51.488;6.668;2023-05-25T06:06:39;10.00;99.90
22071;DHT22;11200;51.488;6.668;2023-05-25T06:09:06;9.90;99.90
22071;DHT22;11200;51.488;6.668;2023-05-25T06:11:36;10.00;99.90
22071;DHT22;11200;51.488;6.668;2023-05-25T06:14:02;10.00;99.90
22071;DHT22;11200;51.488;6.668;2023-05-25T06:16:28;10.00;99.90
22071;DHT22;11200;51.488;6.668;2023-05-25T06:18:54;10.10;99.90
22071;DHT22;11200;51.488;6.668;2023-05-25T06:21:20;10.10;99.90
22071;DHT22;11200;51.488;6.668;2023-05-25T06:23:46;10.20;99.90
22071;DHT22;11200;51.488;6.668;2023-05-25T06:26:13;10.10;99.90
22071;DHT22;11200;51.488;6.668;2023-05-25T06:28:39;10.30;99.90
22071;DHT22;11200;51.488;6.668;2023-05-25T06:31:05;10.30;99.90
22071;DHT22;11200;51.488;6.668;2023-05-25T06:33:31;10.30;99.90
22071;DHT22;11200;51.488;6.668;2023-05-25T06:35:56;10.40;99.90
22071;DHT22;11200;51.488;6.668;2023-05-25T06:38:25;10.40;99.90
22071;DHT22;11200;51.488;6.668;2023-05-25T06:40:51;10.80;99.90
22071;DHT22;11200;51.488;6.668;2023-05-25T06:43:17;10.60;99.90
22071;DHT22;11200;51.488;6.668;2023-05-25T06:45:42;10.60;99.90
22071;DHT22;11200;51.488;6.668;2023-05-25T06:48:08;10.60;99.90
22071;DHT22;11200;51.488;6.668;2023-05-25T06:50:35;10.60;99.90
22071;DHT22;11200;51.488;6.668;2023-05-25T06:53:01;10.50;99.90
22071;DHT22;11200;51.488;6.668;2023-05-25T06:55:27;10.70;99.90
22071;DHT22;11200;51.488;6.668;2023-05-25T06:57:53;10.70;99.90
22071;DHT22;11200;51.488;6.668;2023-05-25T07:00:19;10.70;99.90
22071;DHT22;11200;51.488;6.668;2023-05-25T07:02:45;10.80;99.90
22071;DHT22;11200;51.488;6.668;2023-05-25T07:05:11;10.80;99.90
22071;DHT22;11200;51.488;6.668;2023-05-25T07:07:37;10.90;99.90
22071;DHT22;11200;51.488;6.668;2023-05-25T07:10:03;11.00;99.90
22071;DHT22;11200;51.488;6.668;2023-05-25T07:12:29;11.00;99.90
22071;DHT22;11200;51.488;6.668;2023-05-25T07:14:56;11.10;99.90
22071;DHT22;11200;51.488;6.668;2023-05-25T07:17:22;11.20;99.90
22071;DHT22;11200;51.488;6.668;2023-05-25T07:19:47;11.30;99.90
22071;DHT22;11200;51.488;6.668;2023-05-25T07:22:14;11.40;99.90
22071;DHT22;11200;51.488;6.668;2023-05-25T07:24:45;11.40;99.90
22071;DHT22;11200;51.488;6.668;2023-05-25T07:27:11;11.50;99.90
22071;DHT22;11200;51.488;6.668;2023-05-25T07:29:38;11.60;99.90
22071;DHT22;11200;51.488;6.668;2023-05-25T07:32:06;11.80;99.90
22071;DHT22;11200;51.488;6.668;2023-05-25T07:34:35;11.90;99.90
22071;DHT22;11200;51.488;6.668;2023-05-25T07:37:02;12.00;99.90
22071;DHT22;11200;51.488;6.668;2023-05-25T07:39:27;12.10;99.90
22071;DHT22;11200;51.488;6.668;2023-05-25T07:41:56;12.20;99.90
22071;DHT22;11200;51.488;6.668;2023-05-25T07:44:22;12.40;99.90
22071;DHT22;11200;51.488;6.668;2023-05-25T07:46:47;12.50;99.90
22071;DHT22;11200;51.488;6.668;2023-05-25T07:49:13;12.60;99.90
22071;DHT22;11200;51.488;6.668;2023-05-25T07:51:42;12.80;99.90
22071;DHT22;11200;51.488;6.668;2023-05-25T07:54:09;13.00;99.90
22071;DHT22;11200;51.488;6.668;2023-05-25T07:56:34;13.00;99.90
22071;DHT22;11200;51.488;6.668;2023-05-25T07:59:00;13.10;99.90
22071;DHT22;11200;51.488;6.668;2023-05-25T08:01:26;13.20;99.90
22071;DHT22;11200;51.488;6.668;2023-05-25T08:03:52;13.30;99.90
22071;DHT22;11200;51.488;6.668;2023-05-25T08:06:17;13.40;99.90
22071;DHT22;11200;51.488;6.668;2023-05-25T08:08:43;13.50;99.90
22071;DHT22;11200;51.488;6.668;2023-05-25T08:11:10;13.70;99.90
22071;DHT22;11200;51.488;6.668;2023-05-25T08:13:36;13.80;99.90
22071;DHT22;11200;51.488;6.668;2023-05-25T08:16:02;13.90;99.90
22071;DHT22;11200;51.488;6.668;2023-05-25T08:18:27;14.10;99.90
22071;DHT22;11200;51.488;6.668;2023-05-25T08:20:53;14.30;99.90
22071;DHT22;11200;51.488;6.668;2023-05-25T08:23:18;14.40;99.90
22071;DHT22;11200;51.488;6.668;2023-05-25T08:25:44;14.60;99.90
22071;DHT22;11200;51.488;6.668;2023-05-25T08:28:10;14.70;99.90
22071;DHT22;11200;51.488;6.668;2023-05-25T08:30:35;14.90;99.90
22071;DHT22;11200;51.488;6.668;2023-05-25T08:33:01;15.00;99.90
22071;DHT22;11200;51.488;6.668;2023-05-25T08:35:27;15.00;99.90
22071;DHT22;11200;51.488;6.668;2023-05-25T08:37:54;15.10;99.90
22071;DHT22;11200;51.488;6.668;2023-05-25T08:40:22;15.20;99.90
22071;DHT22;11200;51.488;6.668;2023-05-25T08:42:47;15.20;99.90
22071;DHT22;11200;51.488;6.668;2023-05-25T08:45:13;15.20;99.90
22071;DHT22;11200;51.488;6.668;2023-05-25T08:47:42;15.20;99.90
22071;DHT22;11200;51.488;6.668;2023-05-25T08:50:10;15.30;99.90
22071;DHT22;11200;51.488;6.668;2023-05-25T08:52:38;15.30;99.90
22071;DHT22;11200;51.488;6.668;2023-05-25T08:55:07;15.40;99.90
22071;DHT22;11200;51.488;6.668;2023-05-25T08:57:39;15.40;99.90
22071;DHT22;11200;51.488;6.668;2023-05-25T09:00:07;15.40;99.90
22071;DHT22;11200;51.488;6.668;2023-05-25T09:03:10;15.50;99.90
22071;DHT22;11200;51.488;6.668;2023-05-25T09:05:38;15.60;99.90
22071;DHT22;11200;51.488;6.668;2023-05-25T09:08:04;15.70;99.90
22071;DHT22;11200;51.488;6.668;2023-05-25T09:10:37;15.90;99.90
22071;DHT22;11200;51.488;6.668;2023-05-25T09:13:04;16.10;99.90
22071;DHT22;11200;51.488;6.668;2023-05-25T09:15:32;16.20;99.90
22071;DHT22;11200;51.488;6.668;2023-05-25T09:17:58;16.40;99.90
22071;DHT22;11200;51.488;6.668;2023-05-25T09:20:24;16.50;99.90
22071;DHT22;11200;51.488;6.668;2023-05-25T09:22:59;16.60;99.90
22071;DHT22;11200;51.488;6.668;2023-05-25T09:25:25;16.80;99.90
22071;DHT22;11200;51.488;6.668;2023-05-25T09:27:56;16.90;99.90
22071;DHT22;11200;51.488;6.668;2023-05-25T09:30:23;17.00;99.90
22071;DHT22;11200;51.488;6.668;2023-05-25T09:32:49;17.20;99.90
22071;DHT22;11200;51.488;6.668;2023-05-25T09:35:16;17.30;99.90
22071;DHT22;11200;51.488;6.668;2023-05-25T09:37:43;17.30;99.90
22071;DHT22;11200;51.488;6.668;2023-05-25T09:40:09;17.40;99.90
22071;DHT22;11200;51.488;6.668;2023-05-25T09:42:36;17.40;99.90
22071;DHT22;11200;51.488;6.668;2023-05-25T09:45:02;17.50;99.90
22071;DHT22;11200;51.488;6.668;2023-05-25T09:47:29;17.50;99.90
22071;DHT22;11200;51.488;6.668;2023-05-25T09:49:55;17.50;99.90
22071;DHT22;11200;51.488;6.668;2023-05-25T09:52:22;17.50;99.90
22071;DHT22;11200;51.488;6.668;2023-05-25T09:54:50;17.60;99.90
22071;DHT22;11200;51.488;6.668;2023-05-25T09:57:18;17.60;99.90
22071;DHT22;11200;51.488;6.668;2023-05-25T09:59:45;17.70;99.90
22071;DHT22;11200;51.488;6.668;2023-05-25T10:02:11;17.70;99.90
22071;DHT22;11200;51.488;6.668;2023-05-25T10:04:38;17.70;99.90
22071;DHT22;11200;51.488;6.668;2023-05-25T10:07:04;17.70;99.90
22071;DHT22;11200;51.488;6.668;2023-05-25T10:09:31;17.80;99.90
22071;DHT22;11200;51.488;6.668;2023-05-25T10:11:59;17.80;99.90
22071;DHT22;11200;51.488;6.668;2023-05-25T10:14:27;17.70;99.90
22071;DHT22;11200;51.488;6.668;2023-05-25T10:16:54;17.70;99.90
22071;DHT22;11200;51.488;6.668;2023-05-25T10:19:32;17.70;99.90
22071;DHT22;11200;51.488;6.668;2023-05-25T10:22:11;17.70;99.90
22071;DHT22;11200;51.488;6.668;2023-05-25T10:27:13;17.60;99.90
22071;DHT22;11200;51.488;6.668;2023-05-25T10:29:43;17.60;99.90
22071;DHT22;11200;51.488;6.668;2023-05-25T10:32:10;17.60;99.90
22071;DHT22;11200;51.488;6.668;2023-05-25T10:34:36;17.60;99.90
22071;DHT22;11200;51.488;6.668;2023-05-25T10:37:02;17.50;99.90
22071;DHT22;11200;51.488;6.668;2023-05-25T10:39:29;17.60;99.90
22071;DHT22;11200;51.488;6.668;2023-05-25T10:41:56;17.60;99.90
22071;DHT22;11200;51.488;6.668;2023-05-25T10:44:23;17.70;99.90
22071;DHT22;11200;51.488;6.668;2023-05-25T10:46:49;17.70;99.90
22071;DHT22;11200;51.488;6.668;2023-05-25T10:49:26;17.80;99.90
22071;DHT22;11200;51.488;6.668;2023-05-25T10:51:59;17.90;99.90
22071;DHT22;11200;51.488;6.668;2023-05-25T10:54:33;18.00;99.90
22071;DHT22;11200;51.488;6.668;2023-05-25T10:57:08;18.00;99.90
22071;DHT22;11200;51.488;6.668;2023-05-25T10:59:39;18.10;99.90
22071;DHT22;11200;51.488;6.668;2023-05-25T11:02:05;18.10;99.90
22071;DHT22;11200;51.488;6.668;2023-05-25T11:04:31;18.10;99.90
22071;DHT22;11200;51.488;6.668;2023-05-25T11:09:30;18.20;99.90
22071;DHT22;11200;51.488;6.668;2023-05-25T11:14:26;18.20;99.90
22071;DHT22;11200;51.488;6.668;2023-05-25T11:17:16;18.20;99.90
22071;DHT22;11200;51.488;6.668;2023-05-25T11:19:53;18.10;99.90
22071;DHT22;11200;51.488;6.668;2023-05-25T11:22:22;18.10;99.90
22071;DHT22;11200;51.488;6.668;2023-05-25T11:24:49;18.10;99.90
22071;DHT22;11200;51.488;6.668;2023-05-25T11:27:29;18.10;99.90
22071;DHT22;11200;51.488;6.668;2023-05-25T11:29:58;18.10;99.90
22071;DHT22;11200;51.488;6.668;2023-05-25T11:32:27;18.10;99.90
22071;DHT22;11200;51.488;6.668;2023-05-25T11:34:55;18.10;99.90
22071;DHT22;11200;51.488;6.668;2023-05-25T11:37:24;18.20;99.90
22071;DHT22;11200;51.488;6.668;2023-05-25T11:39:55;18.20;99.90
22071;DHT22;11200;51.488;6.668;2023-05-25T11:42:22;18.30;99.90
22071;DHT22;11200;51.488;6.668;2023-05-25T11:44:49;18.40;99.90
22071;DHT22;11200;51.488;6.668;2023-05-25T11:47:15;18.40;99.90
22071;DHT22;11200;51.488;6.668;2023-05-25T11:49:45;18.50;99.90
22071;DHT22;11200;51.488;6.668;2023-05-25T11:52:18;18.50;99.90
22071;DHT22;11200;51.488;6.668;2023-05-25T11:54:45;18.50;99.90
22071;DHT22;11200;51.488;6.668;2023-05-25T11:57:21;18.50;99.90
22071;DHT22;11200;51.488;6.668;2023-05-25T11:59:57;18.60;99.90
22071;DHT22;11200;51.488;6.668;2023-05-25T12:02:25;18.70;99.90
22071;DHT22;11200;51.488;6.668;2023-05-25T12:04:55;18.70;99.90
22071;DHT22;11200;51.488;6.668;2023-05-25T12:07:21;18.70;99.90
22071;DHT22;11200;51.488;6.668;2023-05-25T12:09:47;18.90;99.90
22071;DHT22;11200;51.488;6.668;2023-05-25T12:12:13;19.00;99.90
22071;DHT22;11200;51.488;6.668;2023-05-25T12:14:48;19.00;99.90
22071;DHT22;11200;51.488;6.668;2023-05-25T12:17:16;19.10;99.90
22071;DHT22;11200;51.488;6.668;2023-05-25T12:19:42;19.20;99.90
22071;DHT22;11200;51.488;6.668;2023-05-25T12:22:09;19.30;99.90
22071;DHT22;11200;51.488;6.668;2023-05-25T12:24:35;19.30;99.90
22071;DHT22;11200;51.488;6.668;2023-05-25T12:27:01;19.40;99.90
22071;DHT22;11200;51.488;6.668;2023-05-25T12:29:27;19.50;99.90
22071;DHT22;11200;51.488;6.668;2023-05-25T12:32:01;19.50;99.90
22071;DHT22;11200;51.488;6.668;2023-05-25T12:34:28;19.60;99.90
22071;DHT22;11200;51.488;6.668;2023-05-25T12:36:55;19.70;99.90
22071;DHT22;11200;51.488;6.668;2023-05-25T12:41:57;19.80;99.90
22071;DHT22;11200;51.488;6.668;2023-05-25T12:44:33;19.80;99.90
22071;DHT22;11200;51.488;6.668;2023-05-25T12:47:18;19.90;99.90
22071;DHT22;11200;51.488;6.668;2023-05-25T12:49:52;19.90;99.90
22071;DHT22;11200;51.488;6.668;2023-05-25T12:52:37;20.00;99.90
22071;DHT22;11200;51.488;6.668;2023-05-25T13:00:35;20.10;99.90
22071;DHT22;11200;51.488;6.668;2023-05-25T13:03:05;20.10;99.90
22071;DHT22;11200;51.488;6.668;2023-05-25T13:05:36;20.10;99.90
22071;DHT22;11200;51.488;6.668;2023-05-25T13:08:05;20.10;99.90
22071;DHT22;11200;51.488;6.668;2023-05-25T13:10:31;20.10;99.90
22071;DHT22;11200;51.488;6.668;2023-05-25T13:12:58;20.10;99.90
22071;DHT22;11200;51.488;6.668;2023-05-25T13:15:25;20.10;99.90
22071;DHT22;11200;51.488;6.668;2023-05-25T13:17:52;20.20;99.90
22071;DHT22;11200;51.488;6.668;2023-05-25T13:20:22;20.20;99.90
22071;DHT22;11200;51.488;6.668;2023-05-25T13:22:50;20.20;99.90
22071;DHT22;11200;51.488;6.668;2023-05-25T13:25:16;20.30;99.90
22071;DHT22;11200;51.488;6.668;2023-05-25T13:27:47;20.30;99.90
22071;DHT22;11200;51.488;6.668;2023-05-25T13:30:13;20.30;99.90
22071;DHT22;11200;51.488;6.668;2023-05-25T13:32:40;20.30;99.90
22071;DHT22;11200;51.488;6.668;2023-05-25T13:35:08;20.40;99.90
22071;DHT22;11200;51.488;6.668;2023-05-25T13:37:36;20.40;99.90
22071;DHT22;11200;51.488;6.668;2023-05-25T13:40:03;20.40;99.90
22071;DHT22;11200;51.488;6.668;2023-05-25T13:42:29;20.70;99.90
22071;DHT22;11200;51.488;6.668;2023-05-25T13:44:55;20.40;99.90
22071;DHT22;11200;51.488;6.668;2023-05-25T13:47:21;20.50;99.90
22071;DHT22;11200;51.488;6.668;2023-05-25T13:49:48;20.50;99.90
22071;DHT22;11200;51.488;6.668;2023-05-25T13:52:13;20.50;99.90
22071;DHT22;11200;51.488;6.668;2023-05-25T13:54:39;20.40;99.90
22071;DHT22;11200;51.488;6.668;2023-05-25T13:57:05;20.50;99.90
22071;DHT22;11200;51.488;6.668;2023-05-25T13:59:32;20.50;99.90
22071;DHT22;11200;51.488;6.668;2023-05-25T14:01:57;20.50;99.90
22071;DHT22;11200;51.488;6.668;2023-05-25T14:04:23;20.60;99.90
22071;DHT22;11200;51.488;6.668;2023-05-25T14:06:49;20.60;99.90
22071;DHT22;11200;51.488;6.668;2023-05-25T14:09:16;20.60;99.90
22071;DHT22;11200;51.488;6.668;2023-05-25T14:11:41;20.50;99.90
22071;DHT22;11200;51.488;6.668;2023-05-25T14:14:08;20.50;99.90
22071;DHT22;11200;51.488;6.668;2023-05-25T14:16:37;20.50;99.90
22071;DHT22;11200;51.488;6.668;2023-05-25T14:19:03;20.60;99.90
22071;DHT22;11200;51.488;6.668;2023-05-25T14:21:29;20.70;99.90
22071;DHT22;11200;51.488;6.668;2023-05-25T14:23:58;20.70;99.90
22071;DHT22;11200;51.488;6.668;2023-05-25T14:26:24;20.70;99.90
22071;DHT22;11200;51.488;6.668;2023-05-25T14:28:51;20.80;99.90
22071;DHT22;11200;51.488;6.668;2023-05-25T14:31:17;20.70;99.90
22071;DHT22;11200;51.488;6.668;2023-05-25T14:33:42;20.90;99.90
22071;DHT22;11200;51.488;6.668;2023-05-25T14:36:08;20.90;99.90
22071;DHT22;11200;51.488;6.668;2023-05-25T14:38:35;20.90;99.90
22071;DHT22;11200;51.488;6.668;2023-05-25T14:41:01;20.90;99.90
22071;DHT22;11200;51.488;6.668;2023-05-25T14:43:26;21.00;99.90
22071;DHT22;11200;51.488;6.668;2023-05-25T14:45:52;20.90;99.90
22071;DHT22;11200;51.488;6.668;2023-05-25T14:48:17;20.90;99.90
22071;DHT22;11200;51.488;6.668;2023-05-25T14:50:48;20.80;99.90
22071;DHT22;11200;51.488;6.668;2023-05-25T14:53:14;20.90;99.90
22071;DHT22;11200;51.488;6.668;2023-05-25T14:55:40;20.90;99.90
22071;DHT22;11200;51.488;6.668;2023-05-25T14:58:06;20.80;99.90
22071;DHT22;11200;51.488;6.668;2023-05-25T15:00:31;20.90;99.90
22071;DHT22;11200;51.488;6.668;2023-05-25T15:02:57;20.80;99.90
22071;DHT22;11200;51.488;6.668;2023-05-25T15:05:23;20.80;99.90
22071;DHT22;11200;51.488;6.668;2023-05-25T15:07:49;20.90;99.90
22071;DHT22;11200;51.488;6.668;2023-05-25T15:10:14;20.80;99.90
22071;DHT22;11200;51.488;6.668;2023-05-25T15:12:40;20.80;99.90
22071;DHT22;11200;51.488;6.668;2023-05-25T15:15:06;20.80;99.90
22071;DHT22;11200;51.488;6.668;2023-05-25T15:17:33;20.80;99.90
22071;DHT22;11200;51.488;6.668;2023-05-25T15:19:59;20.80;99.90
22071;DHT22;11200;51.488;6.668;2023-05-25T15:22:26;20.70;99.90
22071;DHT22;11200;51.488;6.668;2023-05-25T15:24:52;20.70;99.90
22071;DHT22;11200;51.488;6.668;2023-05-25T15:27:18;20.80;99.90
22071;DHT22;11200;51.488;6.668;2023-05-25T15:29:43;20.70;99.90
22071;DHT22;11200;51.488;6.668;2023-05-25T15:32:10;20.60;99.90
22071;DHT22;11200;51.488;6.668;2023-05-25T15:34:38;20.60;99.90
22071;DHT22;11200;51.488;6.668;2023-05-25T15:37:06;20.60;99.90
22071;DHT22;11200;51.488;6.668;2023-05-25T15:39:32;20.50;99.90
22071;DHT22;11200;51.488;6.668;2023-05-25T15:41:57;20.50;99.90
22071;DHT22;11200;51.488;6.668;2023-05-25T15:44:23;20.50;99.90
22071;DHT22;11200;51.488;6.668;2023-05-25T15:46:48;20.50;99.90
22071;DHT22;11200;51.488;6.668;2023-05-25T15:49:14;20.40;99.90
22071;DHT22;11200;51.488;6.668;2023-05-25T15:51:40;20.40;99.90
22071;DHT22;11200;51.488;6.668;2023-05-25T15:54:07;20.40;99.90
22071;DHT22;11200;51.488;6.668;2023-05-25T15:56:34;20.40;99.90